sensor_id;sensor_type;location;lat;lon;timestamp;P1;durP1;ratioP1;P2;durP2;ratioP2
63406;SDS011;49543;45.892;10.838;2023-04-06T09:04:26;9.57;;;8.40;;
63406;SDS011;49543;45.892;10.838;2023-04-06T09:06:51;10.10;;;7.80;;
63406;SDS011;49543;45.892;10.838;2023-04-06T11:31:13;12.25;;;10.93;;
63406;SDS011;49543;45.892;10.838;2023-04-06T11:33:39;11.98;;;9.20;;
63406;SDS011;49543;45.892;10.838;2023-04-06T11:36:05;15.60;;;11.05;;
63406;SDS011;49543;45.892;10.838;2023-04-06T11:38:31;14.93;;;12.43;;
63406;SDS011;49543;45.892;10.838;2023-04-06T11:40:57;12.63;;;11.13;;
63406;SDS011;49543;45.892;10.838;2023-04-06T11:43:26;14.95;;;11.05;;
63406;SDS011;49543;45.892;10.838;2023-04-06T11:46:02;13.43;;;11.70;;
63406;SDS011;49543;45.892;10.838;2023-04-06T15:39:46;9.82;;;7.80;;
63406;SDS011;49543;45.892;10.838;2023-04-06T15:42:11;11.32;;;7.85;;
63406;SDS011;49543;45.892;10.838;2023-04-06T15:44:37;9.50;;;7.80;;
63406;SDS011;49543;45.892;10.838;2023-04-06T15:47:02;8.80;;;7.90;;
63406;SDS011;49543;45.892;10.838;2023-04-06T15:49:27;10.27;;;8.05;;
63406;SDS011;49543;45.892;10.838;2023-04-06T15:51:53;8.63;;;7.18;;
63406;SDS011;49543;45.892;10.838;2023-04-06T15:54:18;8.35;;;7.07;;
63406;SDS011;49543;45.892;10.838;2023-04-06T15:56:45;9.93;;;7.55;;
63406;SDS011;49543;45.892;10.838;2023-04-06T15:59:11;9.40;;;7.78;;
63406;SDS011;49543;45.892;10.838;2023-04-06T16:01:36;9.70;;;7.50;;
63406;SDS011;49543;45.892;10.838;2023-04-06T16:04:05;8.05;;;7.03;;
63406;SDS011;49543;45.892;10.838;2023-04-06T16:08:57;10.07;;;7.43;;
63406;SDS011;49543;45.892;10.838;2023-04-06T16:11:22;9.27;;;7.20;;
63406;SDS011;49543;45.892;10.838;2023-04-06T16:13:47;9.05;;;7.20;;
63406;SDS011;49543;45.892;10.838;2023-04-06T16:16:13;9.43;;;7.80;;
63406;SDS011;49543;45.892;10.838;2023-04-06T16:18:38;10.32;;;7.88;;
63406;SDS011;49543;45.892;10.838;2023-04-06T16:21:04;13.13;;;7.50;;
63406;SDS011;49543;45.892;10.838;2023-04-06T16:23:30;8.55;;;7.05;;
63406;SDS011;49543;45.892;10.838;2023-04-06T16:25:55;9.57;;;7.95;;
63406;SDS011;49543;45.892;10.838;2023-04-06T16:28:22;9.70;;;8.23;;
63406;SDS011;49543;45.892;10.838;2023-04-06T16:30:49;9.63;;;6.82;;
63406;SDS011;49543;45.892;10.838;2023-04-06T16:33:15;9.50;;;7.65;;
63406;SDS011;49543;45.892;10.838;2023-04-06T16:35:45;11.68;;;8.15;;
63406;SDS011;49543;45.892;10.838;2023-04-06T16:38:12;9.55;;;7.72;;
63406;SDS011;49543;45.892;10.838;2023-04-06T16:40:38;10.52;;;8.15;;
63406;SDS011;49543;45.892;10.838;2023-04-06T16:43:03;9.60;;;7.68;;
63406;SDS011;49543;45.892;10.838;2023-04-06T16:45:29;9.88;;;7.78;;
63406;SDS011;49543;45.892;10.838;2023-04-06T16:47:55;10.13;;;7.85;;
63406;SDS011;49543;45.892;10.838;2023-04-06T16:50:20;9.98;;;8.27;;
63406;SDS011;49543;45.892;10.838;2023-04-06T16:52:45;10.98;;;7.53;;
63406;SDS011;49543;45.892;10.838;2023-04-06T16:55:11;8.55;;;7.57;;
63406;SDS011;49543;45.892;10.838;2023-04-06T16:57:36;8.93;;;7.25;;
63406;SDS011;49543;45.892;10.838;2023-04-06T17:00:02;9.80;;;7.38;;
63406;SDS011;49543;45.892;10.838;2023-04-06T17:02:30;8.57;;;7.60;;
63406;SDS011;49543;45.892;10.838;2023-04-06T17:04:56;10.43;;;7.47;;
63406;SDS011;49543;45.892;10.838;2023-04-06T17:07:21;7.95;;;6.95;;
63406;SDS011;49543;45.892;10.838;2023-04-06T17:09:50;8.57;;;7.00;;
63406;SDS011;49543;45.892;10.838;2023-04-06T17:12:15;10.20;;;7.38;;
63406;SDS011;49543;45.892;10.838;2023-04-06T17:14:41;8.88;;;7.80;;
63406;SDS011;49543;45.892;10.838;2023-04-06T17:17:07;10.77;;;7.50;;
63406;SDS011;49543;45.892;10.838;2023-04-06T17:19:32;12.38;;;7.85;;
63406;SDS011;49543;45.892;10.838;2023-04-06T17:21:58;8.43;;;7.15;;
63406;SDS011;49543;45.892;10.838;2023-04-06T17:24:23;10.30;;;7.20;;
63406;SDS011;49543;45.892;10.838;2023-04-06T17:26:49;8.75;;;7.38;;
63406;SDS011;49543;45.892;10.838;2023-04-06T17:29:14;11.48;;;9.30;;
63406;SDS011;49543;45.892;10.838;2023-04-06T17:31:42;13.32;;;9.85;;
63406;SDS011;49543;45.892;10.838;2023-04-06T17:34:09;11.57;;;8.13;;
63406;SDS011;49543;45.892;10.838;2023-04-06T17:36:34;12.10;;;8.52;;
63406;SDS011;49543;45.892;10.838;2023-04-06T17:39:00;11.90;;;9.68;;
63406;SDS011;49543;45.892;10.838;2023-04-06T17:41:25;9.85;;;8.13;;
63406;SDS011;49543;45.892;10.838;2023-04-06T17:43:52;10.02;;;8.30;;
63406;SDS011;49543;45.892;10.838;2023-04-06T17:46:18;10.63;;;8.38;;
63406;SDS011;49543;45.892;10.838;2023-04-06T17:48:44;13.35;;;9.80;;
63406;SDS011;49543;45.892;10.838;2023-04-06T17:51:12;10.70;;;8.82;;
63406;SDS011;49543;45.892;10.838;2023-04-06T17:53:38;9.90;;;8.40;;
63406;SDS011;49543;45.892;10.838;2023-04-06T17:56:03;10.18;;;8.63;;
63406;SDS011;49543;45.892;10.838;2023-04-06T17:58:29;11.23;;;8.98;;
63406;SDS011;49543;45.892;10.838;2023-04-06T18:00:55;15.90;;;10.05;;
63406;SDS011;49543;45.892;10.838;2023-04-06T18:03:20;14.20;;;11.38;;
63406;SDS011;49543;45.892;10.838;2023-04-06T18:05:46;13.05;;;11.02;;
63406;SDS011;49543;45.892;10.838;2023-04-06T18:08:11;16.27;;;11.63;;
63406;SDS011;49543;45.892;10.838;2023-04-06T18:10:38;13.77;;;10.75;;
63406;SDS011;49543;45.892;10.838;2023-04-06T18:13:04;16.27;;;12.52;;
63406;SDS011;49543;45.892;10.838;2023-04-06T18:15:31;16.17;;;12.35;;
63406;SDS011;49543;45.892;10.838;2023-04-06T20:53:04;11.23;;;8.82;;
63406;SDS011;49543;45.892;10.838;2023-04-06T20:55:30;10.85;;;8.20;;
63406;SDS011;49543;45.892;10.838;2023-04-06T20:57:55;9.57;;;7.50;;
63406;SDS011;49543;45.892;10.838;2023-04-06T21:00:21;9.18;;;7.72;;
63406;SDS011;49543;45.892;10.838;2023-04-06T21:02:46;9.73;;;7.55;;
63406;SDS011;49543;45.892;10.838;2023-04-06T21:05:12;9.48;;;7.63;;
63406;SDS011;49543;45.892;10.838;2023-04-06T21:07:37;12.43;;;8.15;;
63406;SDS011;49543;45.892;10.838;2023-04-06T21:10:03;11.63;;;8.63;;
63406;SDS011;49543;45.892;10.838;2023-04-06T21:12:30;12.55;;;9.10;;
63406;SDS011;49543;45.892;10.838;2023-04-06T21:14:55;15.52;;;10.13;;
63406;SDS011;49543;45.892;10.838;2023-04-06T21:17:21;16.02;;;10.48;;
63406;SDS011;49543;45.892;10.838;2023-04-06T21:19:46;13.27;;;9.90;;
63406;SDS011;49543;45.892;10.838;2023-04-06T21:22:12;12.38;;;9.10;;
63406;SDS011;49543;45.892;10.838;2023-04-06T21:24:37;12.18;;;8.48;;
63406;SDS011;49543;45.892;10.838;2023-04-06T21:27:03;11.20;;;8.43;;
63406;SDS011;49543;45.892;10.838;2023-04-06T21:29:30;11.38;;;8.80;;
63406;SDS011;49543;45.892;10.838;2023-04-06T21:31:56;10.50;;;8.57;;
63406;SDS011;49543;45.892;10.838;2023-04-06T21:34:21;11.35;;;8.30;;
63406;SDS011;49543;45.892;10.838;2023-04-06T21:36:47;11.55;;;8.82;;
63406;SDS011;49543;45.892;10.838;2023-04-06T21:39:12;10.88;;;8.90;;
63406;SDS011;49543;45.892;10.838;2023-04-06T21:41:38;9.63;;;8.48;;
63406;SDS011;49543;45.892;10.838;2023-04-06T21:44:04;12.18;;;9.43;;
63406;SDS011;49543;45.892;10.838;2023-04-06T21:46:30;13.13;;;9.95;;
63406;SDS011;49543;45.892;10.838;2023-04-06T21:48:56;13.30;;;10.60;;
63406;SDS011;49543;45.892;10.838;2023-04-06T21:51:22;10.38;;;8.57;;
63406;SDS011;49543;45.892;10.838;2023-04-06T21:53:48;12.60;;;9.68;;
63406;SDS011;49543;45.892;10.838;2023-04-06T21:56:19;11.73;;;9.52;;
63406;SDS011;49543;45.892;10.838;2023-04-06T21:58:49;10.20;;;8.85;;
63406;SDS011;49543;45.892;10.838;2023-04-06T22:01:15;12.70;;;9.35;;
63406;SDS011;49543;45.892;10.838;2023-04-06T22:03:41;12.88;;;9.25;;
63406;SDS011;49543;45.892;10.838;2023-04-06T22:06:07;10.05;;;8.23;;
63406;SDS011;49543;45.892;10.838;2023-04-06T22:08:33;11.45;;;8.40;;
63406;SDS011;49543;45.892;10.838;2023-04-06T22:10:58;12.65;;;9.90;;
63406;SDS011;49543;45.892;10.838;2023-04-06T22:13:25;12.32;;;9.75;;
63406;SDS011;49543;45.892;10.838;2023-04-06T22:15:51;13.30;;;9.90;;
63406;SDS011;49543;45.892;10.838;2023-04-06T22:18:17;15.43;;;10.02;;
63406;SDS011;49543;45.892;10.838;2023-04-06T22:20:43;13.43;;;10.70;;
63406;SDS011;49543;45.892;10.838;2023-04-06T22:23:09;14.35;;;11.40;;
63406;SDS011;49543;45.892;10.838;2023-04-06T22:25:34;13.90;;;10.95;;
63406;SDS011;49543;45.892;10.838;2023-04-06T22:28:00;14.90;;;11.10;;
63406;SDS011;49543;45.892;10.838;2023-04-06T22:30:25;14.40;;;10.90;;
63406;SDS011;49543;45.892;10.838;2023-04-06T22:32:50;12.98;;;10.80;;
63406;SDS011;49543;45.892;10.838;2023-04-06T22:35:16;14.40;;;10.52;;
63406;SDS011;49543;45.892;10.838;2023-04-06T22:37:41;13.88;;;10.38;;
63406;SDS011;49543;45.892;10.838;2023-04-06T22:40:08;13.65;;;10.88;;
63406;SDS011;49543;45.892;10.838;2023-04-06T22:42:35;13.55;;;9.57;;
